createdAt,value
2019-03-30T00:01:02.517Z,16.10
2019-03-30T00:03:33.689Z,15.75
2019-03-30T00:06:05.014Z,16.02
2019-03-30T00:08:35.769Z,16.02
2019-03-30T00:11:07.443Z,15.35
2019-03-30T00:13:38.317Z,16.70
2019-03-30T00:16:10.142Z,15.35
2019-03-30T00:18:41.558Z,16.40
2019-03-30T00:21:12.074Z,16.27
2019-03-30T00:23:43.000Z,14.95
2019-03-30T00:26:13.577Z,16.67
2019-03-30T00:28:45.135Z,16.35
2019-03-30T00:31:15.995Z,17.15
2019-03-30T00:33:46.131Z,16.82
2019-03-30T00:36:16.772Z,16.15
2019-03-30T00:41:16.306Z,17.35
2019-03-30T00:43:47.267Z,17.15
2019-03-30T00:46:17.989Z,16.65
2019-03-30T00:48:48.507Z,16.77
2019-03-30T00:51:19.010Z,16.60
2019-03-30T00:53:49.428Z,18.00
2019-03-30T00:56:19.951Z,16.85
2019-03-30T00:58:50.140Z,17.50
2019-03-30T01:01:20.653Z,17.30
2019-03-30T01:03:50.899Z,16.45
2019-03-30T01:06:21.015Z,16.85
2019-03-30T01:08:51.003Z,16.40
2019-03-30T01:11:21.058Z,17.77
2019-03-30T01:13:51.648Z,16.73
2019-03-30T01:16:21.921Z,17.35
2019-03-30T01:18:53.571Z,17.67
2019-03-30T01:21:23.897Z,16.65
2019-03-30T01:26:38.544Z,17.30
2019-03-30T01:29:08.765Z,16.82
2019-03-30T01:34:08.081Z,16.70
2019-03-30T01:36:38.543Z,17.50
2019-03-30T01:39:09.317Z,16.82
2019-03-30T01:41:39.724Z,16.50
2019-03-30T01:44:09.993Z,17.10
2019-03-30T01:46:40.440Z,16.73
2019-03-30T01:49:11.822Z,18.02
2019-03-30T01:51:41.981Z,17.40
2019-03-30T01:54:13.757Z,17.60
2019-03-30T01:56:44.318Z,15.63
2019-03-30T01:59:14.942Z,17.87
2019-03-30T02:01:45.055Z,18.48
2019-03-30T02:04:15.859Z,16.80
2019-03-30T02:06:46.005Z,17.55
2019-03-30T02:09:17.556Z,17.25
2019-03-30T02:11:47.954Z,16.85
2019-03-30T02:14:18.046Z,18.20
2019-03-30T02:16:48.554Z,17.32
2019-03-30T02:19:19.131Z,17.90
2019-03-30T02:21:49.529Z,16.62
2019-03-30T02:24:19.962Z,17.30
2019-03-30T02:26:50.002Z,16.82
2019-03-30T02:29:21.297Z,16.95
2019-03-30T02:31:51.648Z,16.27
2019-03-30T02:34:22.002Z,16.42
2019-03-30T02:36:52.105Z,16.42
2019-03-30T02:39:22.596Z,17.40
2019-03-30T02:41:52.947Z,17.10
2019-03-30T02:44:23.300Z,17.52
2019-03-30T02:46:53.723Z,17.32
2019-03-30T02:51:53.437Z,17.57
2019-03-30T02:54:23.806Z,17.87
2019-03-30T02:59:23.014Z,18.05
2019-03-30T03:01:53.156Z,18.23
2019-03-30T03:04:23.538Z,17.90
2019-03-30T03:06:54.948Z,18.95
2019-03-30T03:09:25.416Z,17.87
2019-03-30T03:11:55.719Z,18.30
2019-03-30T03:16:55.126Z,19.32
2019-03-30T03:19:25.945Z,18.60
2019-03-30T03:21:55.984Z,20.10
2019-03-30T03:24:26.246Z,19.20
2019-03-30T03:26:56.949Z,18.60
2019-03-30T03:29:26.967Z,18.60
2019-03-30T03:31:57.086Z,18.77
2019-03-30T03:34:27.398Z,18.55
2019-03-30T03:36:57.729Z,18.57
2019-03-30T03:39:28.932Z,17.75
2019-03-30T03:43:38.935Z,18.92
2019-03-30T03:46:09.310Z,18.80
2019-03-30T03:48:39.928Z,19.20
2019-03-30T03:51:25.002Z,18.62
2019-03-30T03:53:43.107Z,19.00
2019-03-30T03:56:19.779Z,18.50
2019-03-30T03:58:54.935Z,19.60
2019-03-30T04:01:28.558Z,19.50
2019-03-30T04:04:02.895Z,19.73
2019-03-30T04:06:40.181Z,19.92
2019-03-30T04:09:11.069Z,19.10
2019-03-30T04:11:46.129Z,19.27
2019-03-30T04:14:24.489Z,19.10
2019-03-30T04:16:54.711Z,18.35
2019-03-30T04:19:24.919Z,19.32
2019-03-30T04:21:54.973Z,19.05
2019-03-30T04:24:25.064Z,18.37
2019-03-30T04:26:55.717Z,18.65
2019-03-30T04:31:55.539Z,19.92
2019-03-30T04:34:25.929Z,20.25
2019-03-30T04:36:56.133Z,20.08
2019-03-30T04:39:26.465Z,20.40
2019-03-30T04:41:56.725Z,19.55
2019-03-30T04:44:26.988Z,20.80
2019-03-30T04:46:57.021Z,19.07
2019-03-30T04:49:27.239Z,18.75
2019-03-30T04:51:58.225Z,19.48
2019-03-30T04:54:28.726Z,20.15
2019-03-30T04:59:28.109Z,20.00
2019-03-30T05:01:58.696Z,19.57
2019-03-30T05:04:28.962Z,19.50
2019-03-30T05:06:59.001Z,19.62
2019-03-30T05:09:28.966Z,21.75
2019-03-30T05:11:59.568Z,20.57
2019-03-30T05:14:29.987Z,20.70
2019-03-30T05:17:00.132Z,20.48
2019-03-30T05:19:30.604Z,19.50
2019-03-30T05:22:11.482Z,20.23
2019-03-30T05:24:33.249Z,18.52
2019-03-30T05:27:03.822Z,18.48
2019-03-30T05:29:34.485Z,19.90
2019-03-30T05:32:04.981Z,19.95
2019-03-30T05:34:35.606Z,18.60
2019-03-30T05:38:01.934Z,18.12
2019-03-30T05:40:31.986Z,17.80
2019-03-30T05:43:03.013Z,18.85
2019-03-30T05:45:33.048Z,18.52
2019-03-30T05:48:03.688Z,17.15
2019-03-30T05:54:11.144Z,15.65
2019-03-30T05:56:41.587Z,15.32
2019-03-30T05:59:11.904Z,14.40
2019-03-30T06:01:42.625Z,13.93
2019-03-30T06:04:12.950Z,13.45
2019-03-30T06:06:43.113Z,14.65
2019-03-30T06:09:13.593Z,14.90
2019-03-30T06:14:13.004Z,14.73
2019-03-30T06:16:43.548Z,13.78
2019-03-30T06:19:13.858Z,14.78
2019-03-30T06:21:44.098Z,13.20
2019-03-30T06:24:15.278Z,15.32
2019-03-30T06:26:45.554Z,14.20
2019-03-30T06:29:15.714Z,14.53
2019-03-30T06:36:46.539Z,14.65
2019-03-30T06:39:18.299Z,14.70
2019-03-30T06:41:48.907Z,14.10
2019-03-30T06:44:19.550Z,14.00
2019-03-30T06:46:49.983Z,15.32
2019-03-30T06:49:20.288Z,14.43
2019-03-30T06:51:50.927Z,14.75
2019-03-30T06:54:21.291Z,14.98
2019-03-30T06:56:51.774Z,16.07
2019-03-30T07:01:51.638Z,16.23
2019-03-30T07:04:22.017Z,16.70
2019-03-30T07:06:54.063Z,15.78
2019-03-30T07:09:28.012Z,15.98
2019-03-30T07:12:02.579Z,16.17
2019-03-30T07:14:37.488Z,15.25
2019-03-30T07:17:12.675Z,15.63
2019-03-30T07:19:47.554Z,16.70
2019-03-30T07:22:17.752Z,15.18
2019-03-30T07:27:16.942Z,16.48
2019-03-30T07:29:47.062Z,17.90
2019-03-30T07:32:17.584Z,16.85
2019-03-30T07:34:47.932Z,16.85
2019-03-30T07:37:18.700Z,16.87
2019-03-30T07:42:18.778Z,18.05
2019-03-30T07:44:49.060Z,17.80
2019-03-30T07:47:19.835Z,17.42
2019-03-30T07:49:50.002Z,17.17
2019-03-30T07:52:20.397Z,15.95
2019-03-30T07:54:50.936Z,16.50
2019-03-30T07:57:21.066Z,16.70
2019-03-30T07:59:51.595Z,17.27
2019-03-30T08:02:21.952Z,16.27
2019-03-30T08:04:52.728Z,16.75
2019-03-30T08:09:51.999Z,16.45
2019-03-30T08:12:22.937Z,16.87
2019-03-30T08:14:53.563Z,15.58
2019-03-30T08:17:24.649Z,16.62
2019-03-30T08:19:56.446Z,14.90
2019-03-30T08:22:26.769Z,16.17
2019-03-30T08:24:57.049Z,15.08
2019-03-30T08:27:27.560Z,16.32
2019-03-30T08:29:57.840Z,15.88
2019-03-30T08:32:27.902Z,15.60
2019-03-30T08:34:58.015Z,14.83
2019-03-30T08:37:30.069Z,14.40
2019-03-30T08:40:00.735Z,15.70
2019-03-30T08:42:32.103Z,14.70
2019-03-30T08:45:02.548Z,16.30
2019-03-30T08:47:32.919Z,15.60
2019-03-30T08:50:05.135Z,15.08
2019-03-30T08:52:35.637Z,15.50
2019-03-30T08:57:37.869Z,13.48
2019-03-30T09:00:09.018Z,14.10
2019-03-30T09:02:39.878Z,14.25
2019-03-30T09:05:12.618Z,13.90
2019-03-30T09:10:12.121Z,14.80
2019-03-30T09:12:42.916Z,15.15
2019-03-30T09:15:13.632Z,14.25
2019-03-30T09:20:14.028Z,15.93
2019-03-30T09:22:46.973Z,13.78
2019-03-30T09:25:17.767Z,14.47
2019-03-30T09:30:18.000Z,14.18
2019-03-30T09:32:48.915Z,15.70
2019-03-30T09:35:20.319Z,12.98
2019-03-30T09:37:51.049Z,15.13
2019-03-30T09:40:22.552Z,14.95
2019-03-30T09:45:24.103Z,16.17
2019-03-30T09:47:54.582Z,14.33
2019-03-30T09:50:24.960Z,14.70
2019-03-30T09:52:55.691Z,14.43
2019-03-30T09:55:27.365Z,13.78
2019-03-30T10:00:27.164Z,15.03
2019-03-30T10:02:57.641Z,15.00
2019-03-30T10:07:57.098Z,14.23
2019-03-30T10:10:27.520Z,14.60
2019-03-30T10:12:57.894Z,15.28
2019-03-30T10:15:28.680Z,14.73
2019-03-30T10:20:28.151Z,16.85
2019-03-30T10:22:58.571Z,15.58
2019-03-30T10:25:28.942Z,15.50
2019-03-30T10:27:59.306Z,14.30
2019-03-30T10:30:29.688Z,16.05
2019-03-30T10:35:29.961Z,16.90
2019-03-30T10:38:00.002Z,14.93
2019-03-30T10:40:30.565Z,16.50
2019-03-30T10:43:00.902Z,14.80
2019-03-30T10:45:31.086Z,15.08
2019-03-30T10:48:01.599Z,15.20
2019-03-30T10:53:01.610Z,16.67
2019-03-30T10:55:31.922Z,15.88
2019-03-30T10:58:02.412Z,14.28
2019-03-30T11:00:39.626Z,14.93
2019-03-30T11:03:09.927Z,13.00
2019-03-30T11:05:40.150Z,14.07
2019-03-30T11:08:11.710Z,12.13
2019-03-30T11:13:11.165Z,9.53
2019-03-30T11:15:41.759Z,10.82
2019-03-30T11:18:11.941Z,11.22
2019-03-30T11:20:42.114Z,12.25
2019-03-30T11:23:12.658Z,12.47
2019-03-30T11:28:12.595Z,12.20
2019-03-30T11:30:42.986Z,11.80
2019-03-30T11:33:13.509Z,11.35
2019-03-30T11:35:44.003Z,11.88
2019-03-30T11:38:14.808Z,12.00
2019-03-30T11:40:45.117Z,11.55
2019-03-30T11:43:15.729Z,11.05
2019-03-30T11:48:14.938Z,9.05
2019-03-30T11:50:45.287Z,8.05
2019-03-30T11:53:16.471Z,8.33
2019-03-30T11:55:46.913Z,7.85
2019-03-30T11:58:17.046Z,9.93
2019-03-30T12:00:47.645Z,9.73
2019-03-30T12:03:17.900Z,10.20
2019-03-30T12:05:48.063Z,9.33
2019-03-30T12:08:18.138Z,10.43
2019-03-30T12:10:48.618Z,9.65
2019-03-30T12:15:48.301Z,11.28
2019-03-30T12:18:18.761Z,9.93
2019-03-30T12:23:18.615Z,10.80
2019-03-30T12:25:49.019Z,10.98
2019-03-30T12:28:19.551Z,9.73
2019-03-30T12:30:49.780Z,9.68
2019-03-30T12:33:20.039Z,10.82
2019-03-30T12:35:50.527Z,9.58
2019-03-30T12:38:20.872Z,9.98
2019-03-30T12:40:51.110Z,11.25
2019-03-30T12:43:21.584Z,10.30
2019-03-30T12:45:52.122Z,10.18
2019-03-30T12:48:22.611Z,9.88
2019-03-30T12:53:21.648Z,9.88
2019-03-30T12:58:21.638Z,9.85
2019-03-30T13:00:51.964Z,9.95
2019-03-30T13:03:22.444Z,8.98
2019-03-30T13:05:52.810Z,9.50
2019-03-30T13:08:23.973Z,9.43
2019-03-30T13:10:55.067Z,8.83
2019-03-30T13:13:26.845Z,8.90
2019-03-30T13:15:57.846Z,9.60
2019-03-30T13:18:28.673Z,9.65
2019-03-30T13:23:28.041Z,9.83
2019-03-30T13:26:03.915Z,9.88
2019-03-30T13:28:34.435Z,10.18
2019-03-30T13:31:04.990Z,9.88
2019-03-30T13:33:35.726Z,10.05
2019-03-30T13:36:10.741Z,9.73
2019-03-30T13:38:41.879Z,9.70
2019-03-30T13:41:14.333Z,9.25
2019-03-30T13:43:45.106Z,9.00
2019-03-30T13:46:15.901Z,8.03
2019-03-30T13:48:46.409Z,8.83
2019-03-30T13:51:17.379Z,9.25
2019-03-30T13:53:48.149Z,8.68
2019-03-30T13:56:18.734Z,8.33
2019-03-30T14:01:18.738Z,7.20
2019-03-30T14:06:18.926Z,7.45
2019-03-30T14:08:49.103Z,7.90
2019-03-30T14:11:19.746Z,7.50
2019-03-30T14:16:20.508Z,7.87
2019-03-30T14:18:51.111Z,7.97
2019-03-30T14:21:21.971Z,7.28
2019-03-30T14:23:54.141Z,6.65
2019-03-30T14:26:31.184Z,8.90
2019-03-30T14:28:57.320Z,7.80
2019-03-30T14:31:28.058Z,8.00
2019-03-30T14:33:58.572Z,7.15
2019-03-30T14:36:28.994Z,8.25
2019-03-30T14:38:59.371Z,8.38
2019-03-30T14:41:29.749Z,8.10
2019-03-30T14:46:29.650Z,7.45
2019-03-30T14:48:59.939Z,7.12
2019-03-30T14:51:30.044Z,7.72
2019-03-30T14:54:00.797Z,7.78
2019-03-30T14:56:44.563Z,7.45
2019-03-30T14:59:10.021Z,7.47
2019-03-30T15:01:36.298Z,7.92
2019-03-30T15:04:06.952Z,7.42
2019-03-30T15:06:37.628Z,7.50
2019-03-30T15:14:09.117Z,8.58
2019-03-30T15:16:40.102Z,8.58
2019-03-30T15:19:11.060Z,8.93
2019-03-30T15:21:41.777Z,7.40
2019-03-30T15:26:41.096Z,7.60
2019-03-30T15:29:11.846Z,6.90
2019-03-30T15:31:42.046Z,7.45
2019-03-30T15:34:12.520Z,7.97
2019-03-30T15:39:13.702Z,8.73
2019-03-30T15:44:13.721Z,9.53
2019-03-30T15:51:43.030Z,8.53
2019-03-30T15:54:13.621Z,9.38
2019-03-30T15:59:13.712Z,9.33
2019-03-30T16:04:13.424Z,10.25
2019-03-30T16:06:43.956Z,9.90
2019-03-30T16:09:14.063Z,9.58
2019-03-30T16:11:44.440Z,9.43
2019-03-30T16:14:14.914Z,9.68
2019-03-30T16:16:47.145Z,9.63
2019-03-30T16:19:17.942Z,9.38
2019-03-30T16:21:49.707Z,9.65
2019-03-30T16:24:20.294Z,9.40
2019-03-30T16:26:51.011Z,9.33
2019-03-30T16:29:21.541Z,10.00
2019-03-30T16:31:51.909Z,9.10
2019-03-30T16:34:22.805Z,9.95
2019-03-30T16:36:53.575Z,9.78
2019-03-30T16:39:24.094Z,9.48
2019-03-30T16:41:55.755Z,9.28
2019-03-30T16:46:57.446Z,10.25
2019-03-30T16:49:28.065Z,10.38
2019-03-30T16:51:59.010Z,10.53
2019-03-30T16:54:29.950Z,9.68
2019-03-30T16:57:00.290Z,9.83
2019-03-30T16:59:31.162Z,9.38
2019-03-30T17:02:01.950Z,9.25
2019-03-30T17:04:32.693Z,9.58
2019-03-30T17:09:33.299Z,9.15
2019-03-30T17:12:04.043Z,9.08
2019-03-30T17:14:34.931Z,9.65
2019-03-30T17:17:06.639Z,10.35
2019-03-30T17:22:07.530Z,9.33
2019-03-30T17:24:38.405Z,9.63
2019-03-30T17:27:10.004Z,9.98
2019-03-30T17:29:40.758Z,10.03
2019-03-30T17:32:11.602Z,10.00
2019-03-30T17:34:42.004Z,11.00
2019-03-30T17:37:14.407Z,10.80
2019-03-30T17:39:44.906Z,10.43
2019-03-30T17:42:15.295Z,10.95
2019-03-30T17:44:45.706Z,10.80
2019-03-30T17:47:16.927Z,10.43
2019-03-30T17:49:46.962Z,9.45
2019-03-30T17:52:17.916Z,9.80
2019-03-30T17:54:48.038Z,9.25
2019-03-30T17:57:19.315Z,9.80
2019-03-30T17:59:49.889Z,10.05
2019-03-30T18:02:23.146Z,10.55
2019-03-30T18:04:53.826Z,10.55
2019-03-30T18:07:25.487Z,10.23
2019-03-30T18:09:57.124Z,9.63
2019-03-30T18:12:28.577Z,10.15
2019-03-30T18:15:03.028Z,9.08
2019-03-30T18:20:06.303Z,9.48
2019-03-30T18:22:38.169Z,9.45
2019-03-30T18:25:09.599Z,10.48
2019-03-30T18:30:12.290Z,10.68
2019-03-30T18:32:44.103Z,10.48
2019-03-30T18:35:15.137Z,10.90
2019-03-30T18:37:46.139Z,12.37
2019-03-30T18:40:32.108Z,10.08
2019-03-30T18:43:04.089Z,9.93
2019-03-30T18:45:35.048Z,10.23
2019-03-30T18:48:18.946Z,10.48
2019-03-30T18:50:49.297Z,11.70
2019-03-30T18:53:20.545Z,10.95
2019-03-30T18:55:50.951Z,11.57
2019-03-30T18:58:21.762Z,11.30
2019-03-30T19:00:52.123Z,10.35
2019-03-30T19:03:22.801Z,10.35
2019-03-30T19:05:52.958Z,10.15
2019-03-30T19:08:23.856Z,10.50
2019-03-30T19:10:56.092Z,10.20
2019-03-30T19:13:26.918Z,11.05
2019-03-30T19:15:57.800Z,12.10
2019-03-30T19:18:28.108Z,11.75
2019-03-30T19:20:58.600Z,10.70
2019-03-30T19:23:29.117Z,11.55
2019-03-30T19:25:59.887Z,11.93
2019-03-30T19:28:30.747Z,10.95
2019-03-30T19:33:30.758Z,12.15
2019-03-30T19:38:30.745Z,13.60
2019-03-30T19:41:01.238Z,13.20
2019-03-30T19:43:43.043Z,12.70
2019-03-30T19:46:16.066Z,12.45
2019-03-30T19:48:46.896Z,12.28
2019-03-30T19:51:17.804Z,13.05
2019-03-30T19:53:48.108Z,13.88
2019-03-30T19:56:18.545Z,13.55
2019-03-30T19:58:48.918Z,13.88
2019-03-30T20:01:19.581Z,11.75
2019-03-30T20:03:50.000Z,11.90
2019-03-30T20:06:20.144Z,12.98
2019-03-30T20:08:50.563Z,12.90
2019-03-30T20:11:20.488Z,13.60
2019-03-30T20:13:51.994Z,13.35
2019-03-30T20:16:23.986Z,14.23
2019-03-30T20:19:11.133Z,15.83
2019-03-30T20:21:26.927Z,14.43
2019-03-30T20:23:57.450Z,12.95
2019-03-30T20:26:28.158Z,14.38
2019-03-30T20:29:00.736Z,13.50
2019-03-30T20:34:00.598Z,13.50
2019-03-30T20:36:30.962Z,13.05
2019-03-30T20:39:01.586Z,13.35
2019-03-30T20:41:33.756Z,12.95
2019-03-30T20:46:33.049Z,14.35
2019-03-30T20:49:03.602Z,13.70
2019-03-30T20:54:03.705Z,14.23
2019-03-30T21:01:32.463Z,13.00
2019-03-30T21:04:03.281Z,13.35
2019-03-30T21:06:34.312Z,13.75
2019-03-30T21:09:12.913Z,13.10
2019-03-30T21:11:43.878Z,13.32
2019-03-30T21:14:15.100Z,14.23
2019-03-30T21:16:45.662Z,14.28
2019-03-30T21:19:16.029Z,13.00
2019-03-30T21:21:47.751Z,12.88
2019-03-30T21:26:47.698Z,13.40
2019-03-30T21:31:50.930Z,12.93
2019-03-30T21:34:21.110Z,12.80
2019-03-30T21:36:51.585Z,12.93
2019-03-30T21:41:51.037Z,12.33
2019-03-30T21:44:23.890Z,14.33
2019-03-30T21:46:54.571Z,13.80
2019-03-30T21:49:25.080Z,13.08
2019-03-30T21:51:55.760Z,12.30
2019-03-30T21:56:55.549Z,11.20
2019-03-30T21:59:27.988Z,11.68
2019-03-30T22:01:58.149Z,11.18
2019-03-30T22:04:28.584Z,12.25
2019-03-30T22:07:00.787Z,11.65
2019-03-30T22:12:00.671Z,11.10
2019-03-30T22:14:30.949Z,11.48
2019-03-30T22:17:01.771Z,11.15
2019-03-30T22:22:04.605Z,11.95
2019-03-30T22:24:34.780Z,11.90
2019-03-30T22:27:04.991Z,11.03
2019-03-30T22:29:35.754Z,11.15
2019-03-30T22:34:35.304Z,11.80
2019-03-30T22:37:05.756Z,11.28
2019-03-30T22:42:05.103Z,11.83
2019-03-30T22:44:35.867Z,12.33
2019-03-30T22:47:06.900Z,11.22
2019-03-30T22:49:38.030Z,12.13
2019-03-30T22:52:08.490Z,12.13
2019-03-30T22:54:38.998Z,12.47
2019-03-30T22:57:09.117Z,12.58
2019-03-30T22:59:40.008Z,12.73
2019-03-30T23:02:10.707Z,13.45
2019-03-30T23:04:40.961Z,13.20
2019-03-30T23:07:11.979Z,14.38
2019-03-30T23:09:42.695Z,13.20
2019-03-30T23:14:42.063Z,13.22
2019-03-30T23:17:12.736Z,12.98
2019-03-30T23:22:12.605Z,12.88
2019-03-30T23:24:43.012Z,12.58
2019-03-30T23:27:16.616Z,12.28
2019-03-30T23:29:46.931Z,12.78
2019-03-30T23:32:17.252Z,12.07
2019-03-30T23:34:47.571Z,12.03
2019-03-30T23:37:18.113Z,11.70
2019-03-30T23:39:49.837Z,11.80
2019-03-30T23:42:20.113Z,12.47
2019-03-30T23:44:50.510Z,12.95
2019-03-30T23:47:20.725Z,12.20
2019-03-30T23:52:20.054Z,12.35
2019-03-30T23:54:50.594Z,12.68
2019-03-30T23:57:20.879Z,12.73
2019-03-30T23:59:50.931Z,13.28
